createdAt,value
2023-05-08T00:15:05.452Z,63.35
2023-05-08T00:17:34.485Z,63.84
2023-05-08T00:20:03.608Z,64.15
2023-05-08T00:22:32.248Z,64.36
2023-05-08T00:25:00.928Z,64.56
2023-05-08T00:27:29.300Z,64.86
2023-05-08T00:29:58.371Z,65.25
2023-05-08T00:32:26.872Z,66.06
2023-05-08T00:39:46.526Z,69.02
2023-05-08T00:42:15.210Z,69.54
2023-05-08T00:44:43.892Z,70.42
2023-05-08T00:47:12.491Z,70.90
2023-05-08T00:49:40.963Z,71.67
2023-05-08T00:52:11.080Z,71.70
2023-05-08T00:54:40.071Z,71.36
2023-05-08T00:57:08.959Z,71.54
2023-05-08T00:59:38.770Z,71.02
2023-05-08T01:02:08.070Z,70.68
2023-05-08T01:04:37.473Z,70.89
2023-05-08T01:07:05.637Z,70.44
2023-05-08T01:09:34.109Z,70.18
2023-05-08T01:12:21.658Z,70.47
2023-05-08T01:15:14.729Z,70.67
2023-05-08T01:18:18.623Z,71.04
2023-05-08T01:20:49.963Z,71.42
2023-05-08T01:23:42.413Z,71.85
2023-05-08T01:26:52.050Z,71.64
2023-05-08T01:29:39.473Z,71.68
2023-05-08T01:32:22.854Z,71.95
2023-05-08T01:34:54.156Z,71.65
2023-05-08T01:37:32.819Z,71.43
2023-05-08T01:40:11.182Z,71.42
2023-05-08T01:56:55.289Z,68.22
2023-05-08T01:59:27.603Z,67.57
2023-05-08T02:01:58.853Z,67.46
2023-05-08T02:04:28.927Z,67.60
2023-05-08T02:06:58.644Z,67.80
2023-05-08T02:09:29.777Z,68.11
2023-05-08T02:12:01.444Z,67.96
2023-05-08T02:14:32.057Z,68.12
2023-05-08T02:17:03.906Z,68.07
2023-05-08T02:19:35.172Z,67.76
2023-05-08T02:22:06.006Z,67.85
2023-05-08T02:24:36.220Z,67.92
2023-05-08T02:27:06.034Z,67.75
2023-05-08T02:29:34.833Z,68.15
2023-05-08T02:32:04.173Z,69.04
2023-05-08T02:34:32.913Z,69.38
2023-05-08T02:37:04.455Z,69.32
2023-05-08T02:39:36.009Z,69.05
2023-05-08T02:42:05.315Z,69.56
2023-05-08T02:44:33.580Z,69.68
2023-05-08T02:47:26.389Z,69.77
2023-05-08T02:50:09.912Z,69.91
2023-05-08T02:52:54.723Z,70.17
2023-05-08T02:55:40.492Z,70.24
2023-05-08T02:58:17.848Z,69.81
2023-05-08T03:00:54.176Z,69.72
2023-05-08T03:03:38.443Z,70.21
2023-05-08T03:06:15.092Z,71.17
2023-05-08T03:08:44.083Z,70.98
2023-05-08T03:11:27.611Z,70.92
2023-05-08T03:14:00.929Z,70.78
2023-05-08T03:16:32.489Z,70.70
2023-05-08T03:19:07.489Z,70.16
2023-05-08T03:21:38.651Z,70.36
2023-05-08T03:24:09.521Z,70.24
2023-05-08T03:26:38.842Z,69.99
2023-05-08T03:29:07.965Z,69.81
2023-05-08T03:31:37.809Z,69.46
2023-05-08T03:34:08.601Z,69.08
2023-05-08T03:36:37.697Z,69.03
2023-05-08T03:39:06.581Z,69.31
2023-05-08T03:41:35.170Z,69.08
2023-05-08T04:04:13.794Z,66.71
2023-05-08T04:06:51.653Z,65.89
2023-05-08T04:09:39.799Z,65.73
2023-05-08T04:12:22.385Z,66.34
2023-05-08T04:14:56.951Z,66.21
2023-05-08T04:17:39.086Z,65.85
2023-05-08T04:20:12.455Z,65.35
2023-05-08T04:22:42.853Z,64.82
2023-05-08T04:25:13.382Z,64.60
2023-05-08T04:27:44.526Z,64.76
2023-05-08T04:30:16.084Z,64.72
